createdAt,value
2023-01-13T00:00:17.029Z,4.65
2023-01-13T00:02:49.858Z,4.55
2023-01-13T00:05:25.693Z,4.63
2023-01-13T00:07:57.993Z,4.88
2023-01-13T00:10:30.808Z,5.05
2023-01-13T00:13:09.191Z,4.63
2023-01-13T00:15:45.084Z,4.38
2023-01-13T00:18:21.154Z,5.13
2023-01-13T00:21:03.755Z,4.57
2023-01-13T00:23:40.073Z,4.85
2023-01-13T00:26:15.704Z,4.70
2023-01-13T00:28:48.362Z,4.65
2023-01-13T00:31:22.541Z,5.05
2023-01-13T00:33:53.089Z,5.07
2023-01-13T00:36:26.116Z,4.85
2023-01-13T00:38:56.406Z,4.93
2023-01-13T00:41:27.503Z,4.43
2023-01-13T00:44:00.796Z,5.20
2023-01-13T00:46:36.867Z,4.90
2023-01-13T00:49:07.327Z,5.18
2023-01-13T00:51:44.788Z,4.95
2023-01-13T00:54:19.686Z,5.20
2023-01-13T00:56:55.720Z,5.60
2023-01-13T00:59:29.605Z,5.30
2023-01-13T01:02:02.603Z,5.32
2023-01-13T01:04:32.830Z,5.35
2023-01-13T01:07:06.309Z,4.65
2023-01-13T01:09:39.591Z,5.07
2023-01-13T01:12:15.351Z,4.95
2023-01-13T01:14:48.425Z,5.07
2023-01-13T01:17:24.443Z,4.95
2023-01-13T01:19:56.900Z,4.85
2023-01-13T01:22:29.507Z,5.03
2023-01-13T01:25:00.772Z,5.15
2023-01-13T01:27:33.600Z,5.00
2023-01-13T01:30:09.830Z,5.20
2023-01-13T01:32:45.228Z,4.97
2023-01-13T01:35:18.610Z,4.90
2023-01-13T01:37:54.129Z,5.57
2023-01-13T01:40:28.974Z,5.03
2023-01-13T01:43:27.680Z,4.75
2023-01-13T01:46:06.902Z,4.80
2023-01-13T01:48:42.188Z,5.10
2023-01-13T01:51:18.147Z,5.32
2023-01-13T01:53:57.585Z,4.90
2023-01-13T01:56:33.191Z,5.07
2023-01-13T01:59:09.628Z,5.10
2023-01-13T02:01:38.571Z,4.75
2023-01-13T02:04:17.408Z,5.20
2023-01-13T02:06:53.814Z,5.20
2023-01-13T02:09:28.298Z,5.13
2023-01-13T02:12:19.864Z,5.20
2023-01-13T02:14:50.018Z,4.80
2023-01-13T02:17:20.838Z,5.32
2023-01-13T02:20:28.972Z,4.65
2023-01-13T02:23:59.223Z,4.70
2023-01-13T02:26:50.106Z,4.90
2023-01-13T02:29:57.421Z,5.35
2023-01-13T02:32:40.200Z,4.80
2023-01-13T02:35:16.884Z,4.85
2023-01-13T02:37:54.585Z,4.93
2023-01-13T02:40:27.161Z,4.72
2023-01-13T02:43:44.679Z,4.93
2023-01-13T02:46:22.421Z,5.05
2023-01-13T02:48:58.933Z,4.85
2023-01-13T02:51:35.583Z,4.75
2023-01-13T02:54:33.203Z,4.82
2023-01-13T02:57:13.103Z,4.63
2023-01-13T02:59:54.354Z,5.10
2023-01-13T03:02:30.870Z,5.05
2023-01-13T03:05:07.534Z,5.22
2023-01-13T03:08:10.676Z,5.30
2023-01-13T03:10:58.947Z,5.00
2023-01-13T03:13:48.724Z,5.13
2023-01-13T03:16:39.012Z,5.35
2023-01-13T03:19:30.407Z,5.10
2023-01-13T03:22:15.323Z,4.78
2023-01-13T03:24:55.035Z,5.03
2023-01-13T03:27:43.681Z,5.25
2023-01-13T03:30:33.289Z,5.43
2023-01-13T03:33:15.892Z,5.25
2023-01-13T03:35:52.868Z,5.32
2023-01-13T03:38:43.356Z,4.82
2023-01-13T03:41:21.928Z,5.63
2023-01-13T03:44:17.589Z,4.57
2023-01-13T03:46:55.985Z,5.40
2023-01-13T03:49:31.523Z,5.13
2023-01-13T03:52:08.997Z,5.30
2023-01-13T03:54:51.981Z,4.97
2023-01-13T03:57:29.981Z,5.30
2023-01-13T04:00:09.485Z,4.65
2023-01-13T04:02:55.593Z,4.72
2023-01-13T04:05:32.801Z,5.18
2023-01-13T04:08:12.554Z,5.85
2023-01-13T04:11:07.835Z,5.25
2023-01-13T04:13:47.534Z,5.10
2023-01-13T04:16:23.697Z,5.68
2023-01-13T04:18:51.369Z,5.18
2023-01-13T04:21:29.568Z,5.10
2023-01-13T04:24:03.122Z,5.22
2023-01-13T04:26:41.424Z,5.25
2023-01-13T04:29:13.080Z,5.30
2023-01-13T04:31:53.424Z,5.10
2023-01-13T04:34:23.794Z,5.13
2023-01-13T04:36:55.243Z,5.43
2023-01-13T04:39:28.543Z,5.10
2023-01-13T04:42:07.681Z,5.10
2023-01-13T04:44:44.085Z,5.00
2023-01-13T04:47:19.646Z,5.13
2023-01-13T04:49:50.072Z,5.10
2023-01-13T04:52:20.757Z,5.07
2023-01-13T04:54:56.828Z,5.03
2023-01-13T04:57:31.295Z,5.03
2023-01-13T05:00:05.523Z,5.05
2023-01-13T05:02:44.076Z,5.10
2023-01-13T05:05:17.926Z,5.75
2023-01-13T05:07:45.936Z,5.28
2023-01-13T05:10:18.936Z,5.63
2023-01-13T05:13:14.154Z,4.95
2023-01-13T05:16:15.145Z,5.53
2023-01-13T05:19:01.945Z,5.03
2023-01-13T05:21:56.322Z,5.35
2023-01-13T05:24:50.807Z,5.13
2023-01-13T05:27:26.948Z,4.85
2023-01-13T05:30:06.798Z,5.45
2023-01-13T05:32:39.879Z,4.88
2023-01-13T05:35:16.009Z,5.43
2023-01-13T05:38:02.711Z,5.43
2023-01-13T05:40:52.484Z,5.18
2023-01-13T05:43:27.113Z,5.13
2023-01-13T05:46:26.139Z,5.18
2023-01-13T05:48:59.881Z,4.78
2023-01-13T05:51:30.723Z,4.95
2023-01-13T05:54:04.201Z,5.15
2023-01-13T05:56:39.640Z,5.43
2023-01-13T05:59:16.008Z,5.40
2023-01-13T06:01:48.788Z,5.30
2023-01-13T06:04:21.660Z,5.22
2023-01-13T06:06:55.988Z,4.97
2023-01-13T06:09:32.304Z,5.53
2023-01-13T06:12:02.793Z,5.40
2023-01-13T06:14:42.021Z,5.07
2023-01-13T06:17:14.689Z,4.80
2023-01-13T06:19:47.828Z,5.00
2023-01-13T06:22:35.591Z,5.38
2023-01-13T06:25:21.455Z,4.93
2023-01-13T06:28:03.310Z,5.05
2023-01-13T06:30:45.567Z,5.32
2023-01-13T06:33:28.060Z,5.18
2023-01-13T06:36:07.887Z,4.85
2023-01-13T06:38:50.960Z,4.47
2023-01-13T06:41:41.746Z,5.32
2023-01-13T06:44:18.825Z,5.07
2023-01-13T06:46:59.653Z,4.95
2023-01-13T06:49:37.567Z,4.97
2023-01-13T06:52:05.306Z,4.82
2023-01-13T06:54:39.212Z,5.40
2023-01-13T06:57:06.568Z,4.93
2023-01-13T06:59:39.093Z,5.38
2023-01-13T07:02:10.309Z,5.20
2023-01-13T07:04:37.842Z,5.03
2023-01-13T07:07:11.530Z,5.30
2023-01-13T07:09:45.756Z,5.10
2023-01-13T07:12:18.616Z,4.70
2023-01-13T07:15:08.131Z,4.82
2023-01-13T07:17:41.272Z,4.95
2023-01-13T07:20:14.655Z,4.90
2023-01-13T07:22:46.079Z,5.10
2023-01-13T07:25:24.978Z,5.13
2023-01-13T07:28:00.383Z,5.00
2023-01-13T07:30:28.541Z,5.10
2023-01-13T07:33:04.755Z,5.43
2023-01-13T07:35:38.398Z,4.78
2023-01-13T07:38:17.281Z,5.65
2023-01-13T07:40:53.299Z,5.25
2023-01-13T07:43:32.290Z,5.28
2023-01-13T07:46:05.853Z,5.82
2023-01-13T07:48:38.122Z,5.30
2023-01-13T07:51:15.826Z,5.10
2023-01-13T07:53:52.512Z,5.20
2023-01-13T07:56:25.864Z,5.20
2023-01-13T07:58:59.376Z,5.35
2023-01-13T08:01:33.676Z,5.30
2023-01-13T08:04:06.684Z,5.60
2023-01-13T08:06:48.034Z,5.28
2023-01-13T08:09:21.212Z,5.50
2023-01-13T08:12:08.979Z,4.97
2023-01-13T08:14:39.753Z,5.43
2023-01-13T08:17:13.659Z,5.80
2023-01-13T08:19:52.199Z,5.75
2023-01-13T08:22:23.447Z,5.55
2023-01-13T08:25:05.526Z,5.35
2023-01-13T08:27:38.799Z,5.20
2023-01-13T08:30:13.053Z,5.82
2023-01-13T08:32:46.927Z,5.25
2023-01-13T08:35:18.860Z,5.38
2023-01-13T08:38:01.597Z,5.65
2023-01-13T08:40:34.793Z,6.05
2023-01-13T08:43:06.499Z,5.43
2023-01-13T08:45:47.088Z,5.75
2023-01-13T08:48:20.464Z,5.80
2023-01-13T08:51:17.282Z,5.55
2023-01-13T08:53:49.661Z,5.82
2023-01-13T08:56:20.597Z,5.82
2023-01-13T08:58:51.023Z,6.03
2023-01-13T09:01:23.470Z,5.82
2023-01-13T09:03:59.284Z,5.50
2023-01-13T09:06:30.660Z,5.70
2023-01-13T09:09:03.654Z,5.88
2023-01-13T09:11:56.489Z,5.53
2023-01-13T09:14:34.101Z,5.57
2023-01-13T09:17:06.455Z,5.80
2023-01-13T09:19:39.745Z,5.65
2023-01-13T09:22:10.233Z,5.43
2023-01-13T09:24:43.630Z,5.40
2023-01-13T09:27:12.887Z,5.25
2023-01-13T09:29:46.155Z,5.75
2023-01-13T09:32:16.721Z,5.72
2023-01-13T09:35:03.073Z,5.32
2023-01-13T09:37:38.223Z,5.75
2023-01-13T09:40:25.934Z,5.20
2023-01-13T09:43:39.612Z,5.55
2023-01-13T09:46:41.071Z,5.40
2023-01-13T09:49:30.728Z,5.28
2023-01-13T09:52:04.690Z,5.38
2023-01-13T09:54:41.427Z,6.03
2023-01-13T09:57:17.225Z,5.53
2023-01-13T09:59:48.419Z,5.45
2023-01-13T10:02:43.906Z,5.20
2023-01-13T10:05:36.027Z,5.72
2023-01-13T10:08:43.108Z,5.47
2023-01-13T10:11:36.283Z,5.55
2023-01-13T10:14:18.688Z,5.57
2023-01-13T10:17:25.405Z,5.55
2023-01-13T10:20:03.127Z,5.80
2023-01-13T10:22:43.844Z,5.95
2023-01-13T10:25:36.010Z,5.80
2023-01-13T10:28:25.472Z,5.90
2023-01-13T10:31:01.382Z,6.15
2023-01-13T10:33:37.273Z,5.65
2023-01-13T10:36:23.124Z,5.93
2023-01-13T10:39:03.639Z,6.25
2023-01-13T10:41:37.546Z,5.68
2023-01-13T10:44:24.406Z,5.70
2023-01-13T10:47:01.016Z,5.35
2023-01-13T10:49:44.854Z,5.80
2023-01-13T10:52:36.567Z,5.50
2023-01-13T10:55:33.929Z,5.78
2023-01-13T10:58:21.779Z,5.97
2023-01-13T11:01:01.430Z,5.43
2023-01-13T11:03:44.530Z,6.45
2023-01-13T11:06:27.916Z,5.73
2023-01-13T11:09:03.188Z,5.72
2023-01-13T11:11:44.958Z,5.78
2023-01-13T11:14:36.410Z,5.55
2023-01-13T11:17:27.984Z,5.80
2023-01-13T11:20:13.182Z,5.70
2023-01-13T11:22:51.641Z,6.28
2023-01-13T11:25:35.434Z,5.80
2023-01-13T11:28:11.968Z,5.88
2023-01-13T11:30:55.570Z,5.32
2023-01-13T11:33:33.535Z,5.65
2023-01-13T11:36:04.052Z,6.03
2023-01-13T11:38:43.188Z,5.68
2023-01-13T11:41:39.155Z,5.80
2023-01-13T11:44:30.182Z,6.30
2023-01-13T11:47:01.989Z,6.05
2023-01-13T11:49:34.131Z,5.60
2023-01-13T11:52:18.766Z,5.82
2023-01-13T11:55:17.093Z,5.80
2023-01-13T11:58:22.167Z,5.60
2023-01-13T12:01:05.743Z,5.82
2023-01-13T12:03:46.353Z,5.85
2023-01-13T12:06:33.240Z,6.10
2023-01-13T12:09:18.463Z,5.75
2023-01-13T12:12:07.648Z,5.97
2023-01-13T12:15:18.567Z,6.00
2023-01-13T12:18:03.542Z,6.03
2023-01-13T12:20:37.335Z,6.00
2023-01-13T12:23:15.742Z,6.10
2023-01-13T12:25:54.207Z,5.55
2023-01-13T12:28:43.469Z,5.85
2023-01-13T12:31:19.042Z,6.05
2023-01-13T12:34:06.336Z,5.50
2023-01-13T12:36:58.694Z,5.68
2023-01-13T12:39:37.702Z,5.75
2023-01-13T12:42:40.669Z,5.68
2023-01-13T12:45:11.264Z,5.57
2023-01-13T12:47:45.682Z,5.82
2023-01-13T12:50:22.521Z,5.60
2023-01-13T12:52:51.574Z,5.68
2023-01-13T12:55:36.964Z,5.75
2023-01-13T12:58:04.820Z,5.55
2023-01-13T13:00:42.336Z,5.53
2023-01-13T13:03:13.919Z,5.50
2023-01-13T13:06:13.908Z,6.03
2023-01-13T13:09:18.707Z,5.55
2023-01-13T13:11:58.443Z,5.53
2023-01-13T13:14:40.551Z,4.88
2023-01-13T13:17:33.978Z,5.40
2023-01-13T13:20:21.536Z,5.50
2023-01-13T13:22:54.316Z,5.50
2023-01-13T13:25:26.466Z,5.15
2023-01-13T13:28:12.127Z,5.78
2023-01-13T13:30:51.842Z,5.30
2023-01-13T13:33:50.969Z,5.38
2023-01-13T13:36:38.892Z,5.40
2023-01-13T13:39:39.856Z,5.65
2023-01-13T13:42:38.181Z,5.40
2023-01-13T13:45:37.421Z,5.15
2023-01-13T13:48:34.628Z,5.25
2023-01-13T13:51:40.179Z,5.00
2023-01-13T13:54:20.730Z,5.25
2023-01-13T13:56:54.268Z,5.00
2023-01-13T13:59:33.829Z,5.18
2023-01-13T14:02:03.815Z,4.90
2023-01-13T14:04:37.409Z,5.32
2023-01-13T14:07:18.427Z,5.03
2023-01-13T14:09:54.528Z,5.30
2023-01-13T14:12:30.991Z,5.00
2023-01-13T14:15:03.678Z,5.25
2023-01-13T14:17:34.016Z,5.35
2023-01-13T14:20:14.772Z,5.55
2023-01-13T14:22:51.055Z,5.00
2023-01-13T14:25:31.098Z,4.55
2023-01-13T14:28:25.695Z,4.70
2023-01-13T14:30:57.360Z,5.13
2023-01-13T14:33:38.870Z,5.05
2023-01-13T14:36:13.827Z,4.55
2023-01-13T14:38:43.942Z,5.22
2023-01-13T14:41:15.977Z,5.13
2023-01-13T14:43:46.552Z,4.80
2023-01-13T14:46:15.441Z,4.82
2023-01-13T14:48:47.223Z,5.15
2023-01-13T14:51:28.442Z,4.82
2023-01-13T14:53:59.905Z,5.30
2023-01-13T14:56:43.880Z,4.78
2023-01-13T14:59:44.921Z,4.70
2023-01-13T15:02:28.898Z,4.85
2023-01-13T15:07:57.532Z,4.55
2023-01-13T15:10:42.594Z,4.85
2023-01-13T15:13:28.842Z,5.07
2023-01-13T15:16:00.494Z,4.90
2023-01-13T15:18:30.732Z,4.68
2023-01-13T15:21:01.753Z,4.75
2023-01-13T15:23:41.218Z,4.93
2023-01-13T15:26:27.458Z,5.10
2023-01-13T15:29:08.409Z,4.80
2023-01-13T15:31:42.685Z,4.50
2023-01-13T15:34:10.493Z,4.80
2023-01-13T15:36:41.140Z,5.15
2023-01-13T15:39:17.938Z,4.65
2023-01-13T15:42:04.453Z,4.70
2023-01-13T15:44:51.723Z,5.00
2023-01-13T15:47:23.641Z,4.28
2023-01-13T15:49:57.654Z,4.32
2023-01-13T15:52:29.133Z,4.30
2023-01-13T15:55:05.099Z,4.07
2023-01-13T15:57:44.060Z,4.45
2023-01-13T16:00:22.009Z,4.20
2023-01-13T16:02:53.082Z,4.10
2023-01-13T16:05:29.352Z,4.45
2023-01-13T16:07:58.432Z,4.38
2023-01-13T16:10:36.878Z,4.15
2023-01-13T16:13:04.696Z,4.10
2023-01-13T16:15:44.816Z,4.18
2023-01-13T16:18:26.446Z,4.43
2023-01-13T16:20:57.101Z,4.53
2023-01-13T16:23:27.199Z,3.95
2023-01-13T16:25:58.264Z,4.38
2023-01-13T16:28:28.272Z,4.30
2023-01-13T16:30:57.035Z,4.13
2023-01-13T16:33:24.996Z,4.13
2023-01-13T16:36:10.630Z,4.20
2023-01-13T16:38:46.914Z,3.90
